sensor_id;sensor_type;location;lat;lon;timestamp;pressure;altitude;pressure_sealevel;temperature;humidity
10921;BME280;5513;50.580;8.818;2023-02-28T00:01:35;100209.31;;;0.63;100.00
10921;BME280;5513;50.580;8.818;2023-02-28T00:04:04;100206.75;;;0.55;100.00
10921;BME280;5513;50.580;8.818;2023-02-28T00:06:32;100201.59;;;0.49;100.00
10921;BME280;5513;50.580;8.818;2023-02-28T00:09:01;100203.31;;;0.50;100.00
10921;BME280;5513;50.580;8.818;2023-02-28T00:11:29;100202.50;;;0.40;100.00
10921;BME280;5513;50.580;8.818;2023-02-28T00:13:58;100202.50;;;0.40;100.00
10921;BME280;5513;50.580;8.818;2023-02-28T00:16:27;100196.38;;;0.44;100.00
10921;BME280;5513;50.580;8.818;2023-02-28T00:18:56;100203.41;;;0.33;100.00
10921;BME280;5513;50.580;8.818;2023-02-28T00:21:25;100193.88;;;0.27;100.00
10921;BME280;5513;50.580;8.818;2023-02-28T00:23:53;100201.69;;;0.26;100.00
10921;BME280;5513;50.580;8.818;2023-02-28T00:26:22;100189.56;;;0.25;100.00
10921;BME280;5513;50.580;8.818;2023-02-28T00:28:51;100189.63;;;0.14;100.00
10921;BME280;5513;50.580;8.818;2023-02-28T00:31:20;100198.31;;;0.09;100.00
10921;BME280;5513;50.580;8.818;2023-02-28T00:33:49;100200.94;;;0.10;100.00
10921;BME280;5513;50.580;8.818;2023-02-28T00:36:20;100201.72;;;0.18;100.00
10921;BME280;5513;50.580;8.818;2023-02-28T00:38:48;100201.75;;;0.15;100.00
10921;BME280;5513;50.580;8.818;2023-02-28T00:41:16;100200.09;;;0.01;100.00
10921;BME280;5513;50.580;8.818;2023-02-28T00:43:45;100200.06;;;0.05;100.00
10921;BME280;5513;50.580;8.818;2023-02-28T00:46:13;100204.41;;;0.11;100.00
10921;BME280;5513;50.580;8.818;2023-02-28T00:48:42;100203.56;;;0.04;100.00
10921;BME280;5513;50.580;8.818;2023-02-28T00:51:11;100201.81;;;0.11;100.00
10921;BME280;5513;50.580;8.818;2023-02-28T00:53:41;100204.44;;;-0.02;100.00
10921;BME280;5513;50.580;8.818;2023-02-28T00:56:10;100196.63;;;0.02;100.00
10921;BME280;5513;50.580;8.818;2023-02-28T00:58:39;100207.94;;;-0.04;100.00
10921;BME280;5513;50.580;8.818;2023-02-28T01:01:08;100204.41;;;0.05;100.00
10921;BME280;5513;50.580;8.818;2023-02-28T01:03:36;100204.44;;;-0.02;100.00
10921;BME280;5513;50.580;8.818;2023-02-28T01:06:05;100204.50;;;-0.09;100.00
10921;BME280;5513;50.580;8.818;2023-02-28T01:08:33;100207.06;;;-0.05;100.00
10921;BME280;5513;50.580;8.818;2023-02-28T01:11:09;100211.38;;;-0.02;100.00
10921;BME280;5513;50.580;8.818;2023-02-28T01:13:38;100201.00;;;-0.10;100.00
10921;BME280;5513;50.580;8.818;2023-02-28T01:16:07;100203.63;;;-0.08;100.00
10921;BME280;5513;50.580;8.818;2023-02-28T01:18:35;100204.47;;;-0.11;100.00
10921;BME280;5513;50.580;8.818;2023-02-28T01:21:05;100209.72;;;-0.21;100.00
10921;BME280;5513;50.580;8.818;2023-02-28T01:23:34;100202.75;;;-0.19;100.00
10921;BME280;5513;50.580;8.818;2023-02-28T01:26:06;100203.66;;;-0.25;100.00
10921;BME280;5513;50.580;8.818;2023-02-28T01:28:36;100210.63;;;-0.33;100.00
10921;BME280;5513;50.580;8.818;2023-02-28T01:31:05;100208.88;;;-0.30;100.00
10921;BME280;5513;50.580;8.818;2023-02-28T01:33:33;100206.28;;;-0.26;100.00
10921;BME280;5513;50.580;8.818;2023-02-28T01:36:03;100202.81;;;-0.32;100.00
10921;BME280;5513;50.580;8.818;2023-02-28T01:38:34;100205.41;;;-0.25;100.00
10921;BME280;5513;50.580;8.818;2023-02-28T01:41:02;100215.84;;;-0.36;100.00
10921;BME280;5513;50.580;8.818;2023-02-28T01:43:54;100209.78;;;-0.35;100.00
10921;BME280;5513;50.580;8.818;2023-02-28T01:46:23;100201.06;;;-0.25;100.00
10921;BME280;5513;50.580;8.818;2023-02-28T01:48:54;100200.22;;;-0.27;100.00
10921;BME280;5513;50.580;8.818;2023-02-28T01:51:26;100204.53;;;-0.26;100.00
10921;BME280;5513;50.580;8.818;2023-02-28T01:54:00;100196.78;;;-0.37;100.00
10921;BME280;5513;50.580;8.818;2023-02-28T01:56:33;100197.59;;;-0.32;100.00
10921;BME280;5513;50.580;8.818;2023-02-28T01:59:05;100186.34;;;-0.34;100.00
10921;BME280;5513;50.580;8.818;2023-02-28T02:01:34;100201.09;;;-0.42;100.00
10921;BME280;5513;50.580;8.818;2023-02-28T02:04:03;100188.97;;;-0.40;100.00
10921;BME280;5513;50.580;8.818;2023-02-28T02:06:37;100185.50;;;-0.37;100.00
10921;BME280;5513;50.580;8.818;2023-02-28T02:09:05;100188.09;;;-0.37;100.00
10921;BME280;5513;50.580;8.818;2023-02-28T02:11:34;100183.78;;;-0.43;100.00
10921;BME280;5513;50.580;8.818;2023-02-28T02:17:26;100186.41;;;-0.53;100.00
10921;BME280;5513;50.580;8.818;2023-02-28T02:20:16;100171.66;;;-0.51;100.00
10921;BME280;5513;50.580;8.818;2023-02-28T02:23:10;100175.16;;;-0.55;100.00
10921;BME280;5513;50.580;8.818;2023-02-28T02:25:52;100175.13;;;-0.60;100.00
10921;BME280;5513;50.580;8.818;2023-02-28T02:28:43;100169.03;;;-0.44;100.00
10921;BME280;5513;50.580;8.818;2023-02-28T02:31:32;100169.91;;;-0.59;100.00
10921;BME280;5513;50.580;8.818;2023-02-28T02:34:24;100169.09;;;-0.57;100.00
10921;BME280;5513;50.580;8.818;2023-02-28T02:37:02;100174.28;;;-0.56;100.00
10921;BME280;5513;50.580;8.818;2023-02-28T02:39:38;100165.59;;;-0.60;100.00
10921;BME280;5513;50.580;8.818;2023-02-28T02:42:14;100161.31;;;-0.67;100.00
10921;BME280;5513;50.580;8.818;2023-02-28T02:44:49;100163.03;;;-0.66;100.00
10921;BME280;5513;50.580;8.818;2023-02-28T02:47:24;100169.94;;;-0.62;100.00
10921;BME280;5513;50.580;8.818;2023-02-28T02:49:57;100171.72;;;-0.73;100.00
10921;BME280;5513;50.580;8.818;2023-02-28T02:52:31;100173.44;;;-0.78;100.00
10921;BME280;5513;50.580;8.818;2023-02-28T02:55:04;100168.25;;;-0.84;100.00
10921;BME280;5513;50.580;8.818;2023-02-28T02:57:36;100168.25;;;-0.79;100.00
10921;BME280;5513;50.580;8.818;2023-02-28T03:00:07;100170.84;;;-0.75;100.00
10921;BME280;5513;50.580;8.818;2023-02-28T03:02:37;100175.19;;;-0.75;100.00
10921;BME280;5513;50.580;8.818;2023-02-28T03:05:16;100168.25;;;-0.79;100.00
10921;BME280;5513;50.580;8.818;2023-02-28T03:07:47;100176.94;;;-0.82;100.00
10921;BME280;5513;50.580;8.818;2023-02-28T03:10:43;100172.59;;;-0.91;100.00
10921;BME280;5513;50.580;8.818;2023-02-28T03:13:33;100169.13;;;-0.91;100.00
10921;BME280;5513;50.580;8.818;2023-02-28T03:16:19;100174.34;;;-0.83;100.00
10921;BME280;5513;50.580;8.818;2023-02-28T03:18:54;100167.41;;;-0.97;100.00
10921;BME280;5513;50.580;8.818;2023-02-28T03:21:34;100173.47;;;-0.76;100.00
10921;BME280;5513;50.580;8.818;2023-02-28T03:24:05;100173.47;;;-0.90;100.00
10921;BME280;5513;50.580;8.818;2023-02-28T03:26:39;100166.53;;;-0.97;100.00
10921;BME280;5513;50.580;8.818;2023-02-28T03:29:14;100170.00;;;-0.91;100.00
10921;BME280;5513;50.580;8.818;2023-02-28T03:31:48;100173.50;;;-1.04;100.00
10921;BME280;5513;50.580;8.818;2023-02-28T03:34:24;100166.53;;;-1.00;100.00
10921;BME280;5513;50.580;8.818;2023-02-28T03:36:59;100167.44;;;-1.04;100.00
10921;BME280;5513;50.580;8.818;2023-02-28T03:39:35;100172.59;;;-0.98;100.00
10921;BME280;5513;50.580;8.818;2023-02-28T03:42:09;100163.94;;;-0.91;100.00
10921;BME280;5513;50.580;8.818;2023-02-28T03:44:42;100168.28;;;-1.02;100.00
10921;BME280;5513;50.580;8.818;2023-02-28T03:47:16;100166.53;;;-1.06;100.00
10921;BME280;5513;50.580;8.818;2023-02-28T03:49:50;100159.63;;;-1.10;100.00
10921;BME280;5513;50.580;8.818;2023-02-28T03:52:25;100164.81;;;-1.09;100.00
10921;BME280;5513;50.580;8.818;2023-02-28T03:55:00;100165.69;;;-1.08;100.00
10921;BME280;5513;50.580;8.818;2023-02-28T03:57:37;100166.53;;;-1.08;100.00
10921;BME280;5513;50.580;8.818;2023-02-28T04:00:11;100170.88;;;-1.11;100.00
10921;BME280;5513;50.580;8.818;2023-02-28T04:02:40;100168.28;;;-1.10;100.00
10921;BME280;5513;50.580;8.818;2023-02-28T04:05:09;100178.69;;;-1.11;100.00
10921;BME280;5513;50.580;8.818;2023-02-28T04:07:39;100168.28;;;-1.02;100.00
10921;BME280;5513;50.580;8.818;2023-02-28T04:10:08;100166.56;;;-1.09;100.00
10921;BME280;5513;50.580;8.818;2023-02-28T04:12:37;100168.28;;;-1.05;100.00
10921;BME280;5513;50.580;8.818;2023-02-28T04:15:06;100176.09;;;-1.02;100.00
10921;BME280;5513;50.580;8.818;2023-02-28T04:17:35;100169.16;;;-1.08;100.00
10921;BME280;5513;50.580;8.818;2023-02-28T04:20:04;100169.16;;;-1.25;100.00
10921;BME280;5513;50.580;8.818;2023-02-28T04:22:36;100173.50;;;-1.21;100.00
10921;BME280;5513;50.580;8.818;2023-02-28T04:25:08;100170.88;;;-1.16;100.00
10921;BME280;5513;50.580;8.818;2023-02-28T04:27:37;100174.34;;;-1.31;100.00
10921;BME280;5513;50.580;8.818;2023-02-28T04:30:06;100171.78;;;-1.25;100.00
10921;BME280;5513;50.580;8.818;2023-02-28T04:32:36;100179.53;;;-1.19;100.00
10921;BME280;5513;50.580;8.818;2023-02-28T04:35:05;100166.56;;;-1.19;100.00
10921;BME280;5513;50.580;8.818;2023-02-28T04:37:37;100171.75;;;-1.08;100.00
10921;BME280;5513;50.580;8.818;2023-02-28T04:40:09;100170.00;;;-1.09;100.00
10921;BME280;5513;50.580;8.818;2023-02-28T04:42:37;100181.28;;;-1.16;100.00
10921;BME280;5513;50.580;8.818;2023-02-28T04:45:07;100178.69;;;-1.24;100.00
10921;BME280;5513;50.580;8.818;2023-02-28T04:47:36;100185.59;;;-1.38;100.00
10921;BME280;5513;50.580;8.818;2023-02-28T04:50:05;100178.69;;;-1.31;100.00
10921;BME280;5513;50.580;8.818;2023-02-28T04:52:34;100183.88;;;-1.28;100.00
10921;BME280;5513;50.580;8.818;2023-02-28T04:55:03;100185.59;;;-1.26;100.00
10921;BME280;5513;50.580;8.818;2023-02-28T04:57:33;100183.00;;;-1.18;100.00
10921;BME280;5513;50.580;8.818;2023-02-28T05:00:03;100177.81;;;-1.17;100.00
10921;BME280;5513;50.580;8.818;2023-02-28T05:02:38;100183.91;;;-1.14;100.00
10921;BME280;5513;50.580;8.818;2023-02-28T05:05:06;100197.75;;;-1.16;100.00
10921;BME280;5513;50.580;8.818;2023-02-28T05:07:35;100195.16;;;-1.12;100.00
10921;BME280;5513;50.580;8.818;2023-02-28T05:10:04;100202.94;;;-0.99;100.00
10921;BME280;5513;50.580;8.818;2023-02-28T05:12:33;100202.94;;;-0.99;100.00
10921;BME280;5513;50.580;8.818;2023-02-28T05:15:02;100208.16;;;-0.94;100.00
10921;BME280;5513;50.580;8.818;2023-02-28T05:17:31;100201.19;;;-0.97;100.00
10921;BME280;5513;50.580;8.818;2023-02-28T05:19:59;100198.59;;;-0.88;100.00
10921;BME280;5513;50.580;8.818;2023-02-28T05:22:41;100197.72;;;-0.80;100.00
10921;BME280;5513;50.580;8.818;2023-02-28T05:25:13;100206.41;;;-0.77;100.00
10921;BME280;5513;50.580;8.818;2023-02-28T05:27:45;100197.72;;;-0.76;100.00
10921;BME280;5513;50.580;8.818;2023-02-28T05:30:14;100210.72;;;-0.64;100.00
10921;BME280;5513;50.580;8.818;2023-02-28T05:32:42;100204.66;;;-0.73;100.00
10921;BME280;5513;50.580;8.818;2023-02-28T05:35:11;100208.13;;;-0.73;100.00
10921;BME280;5513;50.580;8.818;2023-02-28T05:37:39;100208.97;;;-0.71;100.00
10921;BME280;5513;50.580;8.818;2023-02-28T05:40:09;100218.53;;;-0.57;100.00
10921;BME280;5513;50.580;8.818;2023-02-28T05:42:38;100214.19;;;-0.63;100.00
10921;BME280;5513;50.580;8.818;2023-02-28T05:45:10;100216.75;;;-0.59;100.00
10921;BME280;5513;50.580;8.818;2023-02-28T05:47:41;100223.69;;;-0.53;100.00
10921;BME280;5513;50.580;8.818;2023-02-28T05:50:10;100221.09;;;-0.53;100.00
10921;BME280;5513;50.580;8.818;2023-02-28T05:52:38;100226.28;;;-0.50;100.00
10921;BME280;5513;50.580;8.818;2023-02-28T05:55:08;100224.53;;;-0.40;100.00
10921;BME280;5513;50.580;8.818;2023-02-28T05:57:36;100223.66;;;-0.33;100.00
10921;BME280;5513;50.580;8.818;2023-02-28T06:00:06;100217.59;;;-0.38;100.00
10921;BME280;5513;50.580;8.818;2023-02-28T06:02:37;100225.38;;;-0.34;100.00
10921;BME280;5513;50.580;8.818;2023-02-28T06:05:09;100235.81;;;-0.35;100.00
10921;BME280;5513;50.580;8.818;2023-02-28T06:07:40;100221.88;;;-0.23;100.00
10921;BME280;5513;50.580;8.818;2023-02-28T06:10:09;100225.34;;;-0.23;100.00
10921;BME280;5513;50.580;8.818;2023-02-28T06:12:38;100229.69;;;-0.30;100.00
10921;BME280;5513;50.580;8.818;2023-02-28T06:15:11;100236.66;;;-0.35;100.00
10921;BME280;5513;50.580;8.818;2023-02-28T06:17:41;100234.91;;;-0.19;100.00
10921;BME280;5513;50.580;8.818;2023-02-28T06:20:11;100240.09;;;-0.23;100.00
10921;BME280;5513;50.580;8.818;2023-02-28T06:22:41;100241.84;;;-0.32;100.00
10921;BME280;5513;50.580;8.818;2023-02-28T06:25:09;100230.59;;;-0.32;100.00
10921;BME280;5513;50.580;8.818;2023-02-28T06:27:38;100238.41;;;-0.27;100.00
10921;BME280;5513;50.580;8.818;2023-02-28T06:30:07;100240.09;;;-0.16;100.00
10921;BME280;5513;50.580;8.818;2023-02-28T06:32:36;100227.09;;;-0.19;100.00
10921;BME280;5513;50.580;8.818;2023-02-28T06:35:07;100227.97;;;-0.26;100.00
10921;BME280;5513;50.580;8.818;2023-02-28T06:37:36;100230.53;;;-0.12;100.00
10921;BME280;5513;50.580;8.818;2023-02-28T06:40:08;100224.47;;;-0.20;100.00
10921;BME280;5513;50.580;8.818;2023-02-28T06:42:36;100236.66;;;-0.27;100.00
10921;BME280;5513;50.580;8.818;2023-02-28T06:45:06;100240.09;;;-0.22;100.00
10921;BME280;5513;50.580;8.818;2023-02-28T06:47:36;100243.59;;;-0.26;100.00
10921;BME280;5513;50.580;8.818;2023-02-28T06:50:08;100241.84;;;-0.24;100.00
10921;BME280;5513;50.580;8.818;2023-02-28T06:52:37;100246.16;;;-0.20;100.00
10921;BME280;5513;50.580;8.818;2023-02-28T06:55:06;100239.19;;;-0.12;100.00
10921;BME280;5513;50.580;8.818;2023-02-28T06:57:35;100245.28;;;-0.14;100.00
10921;BME280;5513;50.580;8.818;2023-02-28T07:00:06;100247.00;;;-0.12;100.00
10921;BME280;5513;50.580;8.818;2023-02-28T07:02:36;100242.63;;;0.04;100.00
10921;BME280;5513;50.580;8.818;2023-02-28T07:05:07;100244.34;;;0.11;100.00
10921;BME280;5513;50.580;8.818;2023-02-28T07:07:36;100245.19;;;0.15;100.00
10921;BME280;5513;50.580;8.818;2023-02-28T07:10:09;100246.94;;;0.08;100.00
10921;BME280;5513;50.580;8.818;2023-02-28T07:12:37;100246.88;;;0.22;100.00
10921;BME280;5513;50.580;8.818;2023-02-28T07:15:06;100246.88;;;0.19;100.00
10921;BME280;5513;50.580;8.818;2023-02-28T07:17:35;100256.34;;;0.37;100.00
10921;BME280;5513;50.580;8.818;2023-02-28T07:20:05;100258.16;;;0.25;100.00
10921;BME280;5513;50.580;8.818;2023-02-28T07:22:35;100253.81;;;0.31;100.00
10921;BME280;5513;50.580;8.818;2023-02-28T07:25:04;100252.03;;;0.33;100.00
10921;BME280;5513;50.580;8.818;2023-02-28T07:27:32;100246.78;;;0.42;100.00
10921;BME280;5513;50.580;8.818;2023-02-28T07:30:01;100249.34;;;0.46;100.00
10921;BME280;5513;50.580;8.818;2023-02-28T07:32:30;100258.06;;;0.42;100.00
10921;BME280;5513;50.580;8.818;2023-02-28T07:34:58;100257.13;;;0.54;100.00
10921;BME280;5513;50.580;8.818;2023-02-28T07:37:27;100240.63;;;0.55;100.00
10921;BME280;5513;50.580;8.818;2023-02-28T07:39:59;100251.13;;;0.44;100.00
10921;BME280;5513;50.580;8.818;2023-02-28T07:42:32;100247.63;;;0.48;100.00
10921;BME280;5513;50.580;8.818;2023-02-28T07:45:03;100248.44;;;0.60;100.00
10921;BME280;5513;50.580;8.818;2023-02-28T07:47:32;100243.19;;;0.63;100.00
10921;BME280;5513;50.580;8.818;2023-02-28T07:50:01;100246.69;;;0.62;100.00
10921;BME280;5513;50.580;8.818;2023-02-28T07:52:29;100242.25;;;0.73;100.00
10921;BME280;5513;50.580;8.818;2023-02-28T07:55:08;100250.91;;;0.75;100.00
10921;BME280;5513;50.580;8.818;2023-02-28T07:57:37;100250.91;;;0.79;100.00
10921;BME280;5513;50.580;8.818;2023-02-28T08:00:08;100241.34;;;0.80;100.00
10921;BME280;5513;50.580;8.818;2023-02-28T08:02:37;100251.81;;;0.72;100.00
10921;BME280;5513;50.580;8.818;2023-02-28T08:05:07;100256.03;;;0.92;100.00
10921;BME280;5513;50.580;8.818;2023-02-28T08:07:36;100257.72;;;1.00;100.00
10921;BME280;5513;50.580;8.818;2023-02-28T08:10:07;100262.81;;;1.14;100.00
10921;BME280;5513;50.580;8.818;2023-02-28T08:12:36;100258.31;;;1.31;100.00
10921;BME280;5513;50.580;8.818;2023-02-28T08:15:06;100269.69;;;1.26;100.00
10921;BME280;5513;50.580;8.818;2023-02-28T08:17:34;100265.41;;;1.14;100.00
10921;BME280;5513;50.580;8.818;2023-02-28T08:20:03;100267.84;;;1.34;100.00
10921;BME280;5513;50.580;8.818;2023-02-28T08:22:31;100266.88;;;1.47;100.00
10921;BME280;5513;50.580;8.818;2023-02-28T08:25:00;100266.91;;;1.46;100.00
10921;BME280;5513;50.580;8.818;2023-02-28T08:27:30;100255.44;;;1.60;100.00
10921;BME280;5513;50.580;8.818;2023-02-28T08:29:58;100264.97;;;1.63;99.69
10921;BME280;5513;50.580;8.818;2023-02-28T08:32:26;100258.78;;;1.73;99.74
10921;BME280;5513;50.580;8.818;2023-02-28T08:34:56;100262.22;;;1.78;98.08
10921;BME280;5513;50.580;8.818;2023-02-28T08:37:24;100259.78;;;1.64;94.94
10921;BME280;5513;50.580;8.818;2023-02-28T08:39:52;100253.63;;;1.67;92.78
10921;BME280;5513;50.580;8.818;2023-02-28T08:42:22;100258.66;;;1.85;92.39
10921;BME280;5513;50.580;8.818;2023-02-28T08:44:52;100258.75;;;1.78;90.64
10921;BME280;5513;50.580;8.818;2023-02-28T08:47:21;100262.09;;;1.90;89.38
10921;BME280;5513;50.580;8.818;2023-02-28T08:49:49;100264.69;;;1.90;86.15
10921;BME280;5513;50.580;8.818;2023-02-28T08:52:17;100267.38;;;1.83;85.78
10921;BME280;5513;50.580;8.818;2023-02-28T08:54:46;100266.19;;;2.14;87.53
10921;BME280;5513;50.580;8.818;2023-02-28T08:57:14;100272.94;;;2.30;86.18
10921;BME280;5513;50.580;8.818;2023-02-28T08:59:42;100272.66;;;2.53;82.48
10921;BME280;5513;50.580;8.818;2023-02-28T09:02:14;100273.66;;;2.43;77.67
10921;BME280;5513;50.580;8.818;2023-02-28T09:04:43;100264.72;;;2.61;77.15
10921;BME280;5513;50.580;8.818;2023-02-28T09:07:12;100271.75;;;2.54;78.04
10921;BME280;5513;50.580;8.818;2023-02-28T09:09:40;100269.97;;;2.58;71.65
10921;BME280;5513;50.580;8.818;2023-02-28T09:12:21;100266.19;;;2.77;69.23
10921;BME280;5513;50.580;8.818;2023-02-28T09:14:49;100266.47;;;2.61;68.78
10921;BME280;5513;50.580;8.818;2023-02-28T09:17:19;100275.56;;;2.94;67.22
10921;BME280;5513;50.580;8.818;2023-02-28T09:19:48;100269.66;;;2.81;65.35
10921;BME280;5513;50.580;8.818;2023-02-28T09:22:16;100269.41;;;2.96;66.25
10921;BME280;5513;50.580;8.818;2023-02-28T09:24:45;100270.81;;;3.17;65.61
10921;BME280;5513;50.580;8.818;2023-02-28T09:27:13;100270.13;;;3.06;65.59
10921;BME280;5513;50.580;8.818;2023-02-28T09:29:41;100271.72;;;3.16;64.16
10921;BME280;5513;50.580;8.818;2023-02-28T09:32:09;100273.38;;;3.22;63.03
10921;BME280;5513;50.580;8.818;2023-02-28T09:34:39;100262.00;;;3.23;63.22
10921;BME280;5513;50.580;8.818;2023-02-28T09:37:10;100260.38;;;3.15;61.52
10921;BME280;5513;50.580;8.818;2023-02-28T09:39:38;100271.25;;;2.91;61.17
10921;BME280;5513;50.580;8.818;2023-02-28T09:42:18;100264.53;;;2.73;62.27
10921;BME280;5513;50.580;8.818;2023-02-28T09:44:50;100272.25;;;2.82;63.19
10921;BME280;5513;50.580;8.818;2023-02-28T09:47:27;100271.06;;;3.03;61.93
10921;BME280;5513;50.580;8.818;2023-02-28T09:50:03;100266.22;;;2.76;61.89
10921;BME280;5513;50.580;8.818;2023-02-28T09:52:36;100264.47;;;2.76;62.54
10921;BME280;5513;50.580;8.818;2023-02-28T09:55:19;100259.25;;;2.76;62.21
10921;BME280;5513;50.580;8.818;2023-02-28T09:57:48;100252.69;;;2.46;63.06
10921;BME280;5513;50.580;8.818;2023-02-28T10:00:21;100262.97;;;2.58;63.73
10921;BME280;5513;50.580;8.818;2023-02-28T10:03:10;100261.16;;;2.65;63.65
10921;BME280;5513;50.580;8.818;2023-02-28T10:05:49;100268.75;;;2.82;62.66
10921;BME280;5513;50.580;8.818;2023-02-28T10:08:23;100255.69;;;3.36;63.07
10921;BME280;5513;50.580;8.818;2023-02-28T10:10:55;100257.34;;;3.41;61.18
10921;BME280;5513;50.580;8.818;2023-02-28T10:13:27;100251.78;;;3.60;61.41
10921;BME280;5513;50.580;8.818;2023-02-28T10:16:01;100255.81;;;3.27;62.11
10921;BME280;5513;50.580;8.818;2023-02-28T10:18:42;100270.06;;;3.10;63.46
10921;BME280;5513;50.580;8.818;2023-02-28T10:21:20;100260.41;;;3.65;61.52
10921;BME280;5513;50.580;8.818;2023-02-28T10:23:53;100259.38;;;4.18;58.74
10921;BME280;5513;50.580;8.818;2023-02-28T10:26:26;100257.19;;;4.40;57.50
10921;BME280;5513;50.580;8.818;2023-02-28T10:28:57;100246.75;;;3.94;57.40
10921;BME280;5513;50.580;8.818;2023-02-28T10:31:25;100259.34;;;3.75;57.77
10921;BME280;5513;50.580;8.818;2023-02-28T10:33:54;100257.66;;;3.23;58.43
10921;BME280;5513;50.580;8.818;2023-02-28T10:36:24;100254.00;;;3.32;59.21
10921;BME280;5513;50.580;8.818;2023-02-28T10:38:53;100259.97;;;3.41;58.87
10921;BME280;5513;50.580;8.818;2023-02-28T10:41:28;100257.41;;;3.38;60.02
10921;BME280;5513;50.580;8.818;2023-02-28T10:44:14;100252.63;;;3.60;60.84
10921;BME280;5513;50.580;8.818;2023-02-28T10:46:43;100248.16;;;3.65;59.15
10921;BME280;5513;50.580;8.818;2023-02-28T10:49:14;100238.59;;;3.64;57.88
10921;BME280;5513;50.580;8.818;2023-02-28T10:51:52;100247.94;;;3.79;57.30
10921;BME280;5513;50.580;8.818;2023-02-28T10:54:26;100250.59;;;3.78;58.02
10921;BME280;5513;50.580;8.818;2023-02-28T10:57:07;100249.84;;;4.14;57.31
10921;BME280;5513;50.580;8.818;2023-02-28T10:59:36;100250.63;;;4.19;57.45
10921;BME280;5513;50.580;8.818;2023-02-28T11:02:29;100243.84;;;4.09;57.50
10921;BME280;5513;50.580;8.818;2023-02-28T11:05:23;100238.59;;;4.09;56.10
10921;BME280;5513;50.580;8.818;2023-02-28T11:07:54;100240.13;;;4.19;57.03
10921;BME280;5513;50.580;8.818;2023-02-28T11:10:26;100243.78;;;4.54;57.01
10921;BME280;5513;50.580;8.818;2023-02-28T11:12:57;100232.41;;;4.91;56.23
10921;BME280;5513;50.580;8.818;2023-02-28T11:15:28;100242.03;;;4.54;55.05
10921;BME280;5513;50.580;8.818;2023-02-28T11:18:00;100253.59;;;4.84;55.12
10921;BME280;5513;50.580;8.818;2023-02-28T11:20:30;100236.19;;;4.79;55.22
10921;BME280;5513;50.580;8.818;2023-02-28T11:23:03;100243.72;;;4.94;57.14
10921;BME280;5513;50.580;8.818;2023-02-28T11:25:34;100246.47;;;5.59;57.90
10921;BME280;5513;50.580;8.818;2023-02-28T11:28:04;100247.63;;;5.82;55.28
10921;BME280;5513;50.580;8.818;2023-02-28T11:30:35;100240.81;;;5.74;56.62
10921;BME280;5513;50.580;8.818;2023-02-28T11:33:26;100239.84;;;5.77;54.16
10921;BME280;5513;50.580;8.818;2023-02-28T11:35:58;100246.56;;;5.21;54.57
10921;BME280;5513;50.580;8.818;2023-02-28T11:38:28;100243.78;;;4.93;55.99
10921;BME280;5513;50.580;8.818;2023-02-28T11:41:08;100242.84;;;4.95;55.84
10921;BME280;5513;50.580;8.818;2023-02-28T11:43:53;100241.81;;;5.36;55.65
10921;BME280;5513;50.580;8.818;2023-02-28T11:46:33;100235.41;;;5.46;54.15
10921;BME280;5513;50.580;8.818;2023-02-28T11:49:14;100243.81;;;5.27;54.57
10921;BME280;5513;50.580;8.818;2023-02-28T11:51:53;100239.09;;;5.39;55.89
10921;BME280;5513;50.580;8.818;2023-02-28T11:54:34;100231.28;;;6.03;55.29
10921;BME280;5513;50.580;8.818;2023-02-28T11:57:17;100234.13;;;6.26;52.70
10921;BME280;5513;50.580;8.818;2023-02-28T11:59:56;100234.03;;;6.00;52.22
10921;BME280;5513;50.580;8.818;2023-02-28T12:02:31;100230.22;;;5.78;52.02
10921;BME280;5513;50.580;8.818;2023-02-28T12:05:20;100230.13;;;6.13;52.89
10921;BME280;5513;50.580;8.818;2023-02-28T12:07:58;100229.88;;;6.22;52.62
10921;BME280;5513;50.580;8.818;2023-02-28T12:10:36;100218.81;;;6.41;51.77
10921;BME280;5513;50.580;8.818;2023-02-28T12:13:16;100221.00;;;6.54;51.53
10921;BME280;5513;50.580;8.818;2023-02-28T12:16:17;100225.09;;;6.35;52.42
10921;BME280;5513;50.580;8.818;2023-02-28T12:19:00;100223.69;;;6.53;51.54
10921;BME280;5513;50.580;8.818;2023-02-28T12:21:46;100217.78;;;6.45;51.74
10921;BME280;5513;50.580;8.818;2023-02-28T12:24:44;100209.34;;;6.63;50.66
10921;BME280;5513;50.580;8.818;2023-02-28T12:27:21;100215.34;;;6.68;50.76
10921;BME280;5513;50.580;8.818;2023-02-28T12:29:57;100210.47;;;7.10;50.10
10921;BME280;5513;50.580;8.818;2023-02-28T12:32:30;100206.22;;;7.06;49.74
10921;BME280;5513;50.580;8.818;2023-02-28T12:35:02;100205.03;;;6.88;49.80
10921;BME280;5513;50.580;8.818;2023-02-28T12:37:36;100205.19;;;7.10;49.69
10921;BME280;5513;50.580;8.818;2023-02-28T12:40:11;100199.84;;;7.38;49.48
10921;BME280;5513;50.580;8.818;2023-02-28T12:42:46;100197.75;;;6.97;49.98
10921;BME280;5513;50.580;8.818;2023-02-28T12:45:18;100199.47;;;7.24;49.46
10921;BME280;5513;50.580;8.818;2023-02-28T12:47:52;100206.16;;;7.08;48.89
10921;BME280;5513;50.580;8.818;2023-02-28T12:50:24;100203.34;;;7.39;48.55
10921;BME280;5513;50.580;8.818;2023-02-28T12:52:59;100198.09;;;7.39;48.47
10921;BME280;5513;50.580;8.818;2023-02-28T12:55:33;100191.75;;;6.92;49.54
10921;BME280;5513;50.580;8.818;2023-02-28T12:58:13;100193.34;;;6.97;49.05
10921;BME280;5513;50.580;8.818;2023-02-28T13:00:55;100200.47;;;6.94;49.55
10921;BME280;5513;50.580;8.818;2023-02-28T13:03:44;100193.91;;;7.07;49.42
10921;BME280;5513;50.580;8.818;2023-02-28T13:06:27;100184.22;;;7.07;48.62
10921;BME280;5513;50.580;8.818;2023-02-28T13:09:05;100182.16;;;7.42;48.45
10921;BME280;5513;50.580;8.818;2023-02-28T13:11:40;100181.91;;;7.74;48.48
10921;BME280;5513;50.580;8.818;2023-02-28T13:14:23;100176.41;;;7.56;48.34
10921;BME280;5513;50.580;8.818;2023-02-28T13:16:57;100180.41;;;7.91;47.77
10921;BME280;5513;50.580;8.818;2023-02-28T13:19:28;100180.31;;;7.69;47.22
10921;BME280;5513;50.580;8.818;2023-02-28T13:21:57;100171.28;;;7.76;47.44
10921;BME280;5513;50.580;8.818;2023-02-28T13:24:50;100164.25;;;7.52;47.65
10921;BME280;5513;50.580;8.818;2023-02-28T13:33:27;100163.59;;;9.06;45.49
10921;BME280;5513;50.580;8.818;2023-02-28T13:36:19;100161.31;;;9.59;44.35
10921;BME280;5513;50.580;8.818;2023-02-28T13:38:52;100162.50;;;9.52;43.76